Time;durP1;ratioP1;P1;durP2;ratioP2;P2;SDS_P1;SDS_P2;PMS_P1;PMS_P2;Temp;Humidity;BMP_temperature;BMP_pressure;BME280_temperature;BME280_humidity;BME280_pressure;Samples;Min_cycle;Max_cycle;Signal;HPM_P1;HPM_P2
2023/04/16 00:02:19;;;;;;;4.50;2.50;;;;;;;;;;5089929;28;20279;-79
2023/04/16 00:04:46;;;;;;;5.53;2.90;;;;;;;;;;5095478;28;20199;-79
2023/04/16 00:07:13;;;;;;;7.27;3.70;;;;;;;;;;5098424;28;20262;-79
2023/04/16 00:09:40;;;;;;;7.93;3.23;;;;;;;;;;5103900;28;20203;-79
2023/04/16 00:12:08;;;;;;;6.77;1.90;;;;;;;;;;5090733;28;20234;-79
2023/04/16 00:14:35;;;;;;;4.63;1.90;;;;;;;;;;5090088;28;20441;-79
2023/04/16 00:17:02;;;;;;;4.97;3.57;;;;;;;;;;5089918;28;20220;-79
2023/04/16 00:19:28;;;;;;;5.57;2.07;;;;;;;;;;5090292;28;20196;-79
2023/04/16 00:21:55;;;;;;;2.70;1.80;;;;;;;;;;5102978;28;20252;-78
2023/04/16 00:24:22;;;;;;;6.33;3.90;;;;;;;;;;5100520;28;20759;-78
2023/04/16 00:26:49;;;;;;;5.83;3.10;;;;;;;;;;5100578;28;20204;-79
2023/04/16 00:29:17;;;;;;;9.33;3.03;;;;;;;;;;5107582;28;20249;-78
2023/04/16 00:31:43;;;;;;;4.93;2.87;;;;;;;;;;5107355;28;20325;-81
2023/04/16 00:34:10;;;;;;;6.50;2.60;;;;;;;;;;5093558;28;20735;-79
2023/04/16 00:36:37;;;;;;;8.87;3.30;;;;;;;;;;5093903;28;20227;-79
2023/04/16 00:39:04;;;;;;;6.30;2.23;;;;;;;;;;5114418;28;20236;-79
2023/04/16 00:41:31;;;;;;;4.97;2.43;;;;;;;;;;5100137;28;20249;-78
2023/04/16 00:43:57;;;;;;;6.30;2.43;;;;;;;;;;5106698;28;20223;-79
2023/04/16 00:46:26;;;;;;;4.07;2.20;;;;;;;;;;5093273;28;20208;-81
2023/04/16 00:48:54;;;;;;;4.77;2.40;;;;;;;;;;5101686;28;20212;-78
2023/04/16 00:51:21;;;;;;;5.60;2.60;;;;;;;;;;5113499;28;20206;-78
2023/04/16 00:53:48;;;;;;;4.80;2.57;;;;;;;;;;5113516;28;20758;-78
2023/04/16 00:56:15;;;;;;;5.27;2.37;;;;;;;;;;5113319;28;20263;-78
2023/04/16 00:58:41;;;;;;;4.17;2.03;;;;;;;;;;5104637;28;20206;-79
2023/04/16 01:01:08;;;;;;;7.23;1.93;;;;;;;;;;5093233;28;20204;-79
2023/04/16 01:03:40;;;;;;;5.23;2.33;;;;;;;;;;5093489;28;20207;-79
2023/04/16 01:06:06;;;;;;;3.53;1.70;;;;;;;;;;5109767;28;20230;-79
2023/04/16 01:08:35;;;;;;;6.00;2.63;;;;;;;;;;5103347;28;20204;-78
2023/04/16 01:11:03;;;;;;;7.53;2.93;;;;;;;;;;5096254;28;20272;-78
2023/04/16 01:13:29;;;;;;;3.93;2.20;;;;;;;;;;5095349;28;20228;-78
2023/04/16 01:15:56;;;;;;;6.63;2.50;;;;;;;;;;5109593;28;20205;-79
2023/04/16 01:18:24;;;;;;;3.97;2.40;;;;;;;;;;5103696;28;20230;-78
2023/04/16 01:20:52;;;;;;;8.97;2.70;;;;;;;;;;5108957;28;20200;-78
2023/04/16 01:23:19;;;;;;;5.60;2.53;;;;;;;;;;5093268;28;20679;-78
2023/04/16 01:25:46;;;;;;;6.00;2.60;;;;;;;;;;5092876;28;20204;-78
2023/04/16 01:28:13;;;;;;;4.73;2.40;;;;;;;;;;5104851;28;20635;-78
2023/04/16 01:30:40;;;;;;;8.40;2.73;;;;;;;;;;5094865;28;20204;-79
2023/04/16 01:33:07;;;;;;;8.40;2.43;;;;;;;;;;5103610;28;20207;-78
2023/04/16 01:35:34;;;;;;;7.87;2.87;;;;;;;;;;5099421;28;20230;-78
2023/04/16 01:38:02;;;;;;;4.13;2.40;;;;;;;;;;5101286;28;20259;-78
2023/04/16 01:40:29;;;;;;;3.20;2.43;;;;;;;;;;5097716;28;20203;-78
2023/04/16 01:42:56;;;;;;;5.17;2.77;;;;;;;;;;5100200;28;20220;-78
2023/04/16 01:45:23;;;;;;;4.97;2.60;;;;;;;;;;5111365;28;20204;-80
2023/04/16 01:47:50;;;;;;;11.70;3.10;;;;;;;;;;5100082;28;20215;-78
2023/04/16 01:50:16;;;;;;;6.67;2.90;;;;;;;;;;5111943;28;20575;-78
2023/04/16 01:52:43;;;;;;;10.53;2.97;;;;;;;;;;5099310;28;20683;-78
2023/04/16 01:55:11;;;;;;;4.33;2.87;;;;;;;;;;5098458;28;20199;-78
2023/04/16 01:57:38;;;;;;;6.03;3.10;;;;;;;;;;5098729;28;20227;-79
2023/04/16 02:00:07;;;;;;;7.27;3.13;;;;;;;;;;5098678;28;20203;-78
2023/04/16 02:02:34;;;;;;;3.27;2.50;;;;;;;;;;5111555;28;20200;-79
2023/04/16 02:05:02;;;;;;;4.73;2.53;;;;;;;;;;5099665;28;20265;-78
2023/04/16 02:07:30;;;;;;;5.80;2.50;;;;;;;;;;5098420;28;20610;-79
2023/04/16 02:09:57;;;;;;;3.67;2.97;;;;;;;;;;5111780;28;20219;-78
2023/04/16 02:12:25;;;;;;;4.43;2.63;;;;;;;;;;5112001;28;20195;-79
2023/04/16 02:14:52;;;;;;;4.63;2.20;;;;;;;;;;5112359;28;20758;-79
2023/04/16 02:17:18;;;;;;;3.53;2.40;;;;;;;;;;5112683;28;20311;-79
2023/04/16 02:19:46;;;;;;;4.97;3.20;;;;;;;;;;5111791;28;20669;-79
2023/04/16 02:22:12;;;;;;;7.40;3.57;;;;;;;;;;5111541;28;20306;-81
2023/04/16 02:24:39;;;;;;;7.60;2.87;;;;;;;;;;5112244;28;20272;-79
2023/04/16 02:27:06;;;;;;;6.37;3.43;;;;;;;;;;5096609;28;20197;-79
2023/04/16 02:29:34;;;;;;;9.13;3.30;;;;;;;;;;5091831;28;20200;-79
2023/04/16 02:32:02;;;;;;;9.83;2.90;;;;;;;;;;5091596;28;20200;-79
2023/04/16 02:34:29;;;;;;;5.10;3.37;;;;;;;;;;5101507;28;20203;-79
2023/04/16 02:36:57;;;;;;;4.87;2.57;;;;;;;;;;5108747;28;20231;-79
2023/04/16 02:39:24;;;;;;;5.13;2.77;;;;;;;;;;5091549;28;20694;-79
2023/04/16 02:41:51;;;;;;;8.53;2.93;;;;;;;;;;5091330;28;20207;-79
2023/04/16 02:44:17;;;;;;;6.93;4.10;;;;;;;;;;5091138;28;20223;-79
2023/04/16 02:46:45;;;;;;;8.13;3.47;;;;;;;;;;5104951;28;20864;-79
2023/04/16 02:49:12;;;;;;;5.80;2.97;;;;;;;;;;5091131;28;20257;-78
2023/04/16 02:51:39;;;;;;;14.67;4.63;;;;;;;;;;5095416;28;20192;-84
2023/04/16 02:54:06;;;;;;;3.73;2.97;;;;;;;;;;5101274;28;20204;-78
2023/04/16 02:56:32;;;;;;;7.80;3.47;;;;;;;;;;5104848;28;20234;-79
2023/04/16 02:58:59;;;;;;;11.23;4.93;;;;;;;;;;5091203;28;21129;-79
2023/04/16 03:01:27;;;;;;;6.07;3.83;;;;;;;;;;5109092;28;20206;-79
2023/04/16 03:03:55;;;;;;;5.30;3.53;;;;;;;;;;5100453;28;20204;-79
2023/04/16 03:06:22;;;;;;;10.83;4.50;;;;;;;;;;5104580;28;20196;-78
2023/04/16 03:08:48;;;;;;;11.40;3.20;;;;;;;;;;5102995;28;20624;-79
2023/04/16 03:11:15;;;;;;;9.33;4.33;;;;;;;;;;5092124;28;20228;-79
2023/04/16 03:13:42;;;;;;;7.37;4.87;;;;;;;;;;5091533;28;20207;-79
2023/04/16 03:16:09;;;;;;;7.93;3.43;;;;;;;;;;5104703;28;20200;-78
2023/04/16 03:18:36;;;;;;;10.80;4.00;;;;;;;;;;5097827;28;20231;-79
2023/04/16 03:21:05;;;;;;;12.43;6.53;;;;;;;;;;5104407;28;20258;-79
2023/04/16 03:23:32;;;;;;;21.20;11.57;;;;;;;;;;5103753;28;20196;-79
2023/04/16 03:25:59;;;;;;;13.83;7.23;;;;;;;;;;5096974;28;20252;-79
2023/04/16 03:28:25;;;;;;;16.63;6.17;;;;;;;;;;5111113;28;20589;-78
2023/04/16 03:30:52;;;;;;;8.63;4.50;;;;;;;;;;5091217;28;20272;-79
2023/04/16 03:33:19;;;;;;;7.80;4.07;;;;;;;;;;5103934;28;20206;-78
2023/04/16 03:35:46;;;;;;;255.13;90.60;;;;;;;;;;5110668;28;20212;-79
2023/04/16 03:38:14;;;;;;;312.87;124.27;;;;;;;;;;5097349;28;20254;-79
2023/04/16 03:40:41;;;;;;;339.13;130.57;;;;;;;;;;5090543;28;20252;-79
2023/04/16 03:43:07;;;;;;;152.17;59.20;;;;;;;;;;5091089;28;20266;-79
2023/04/16 03:45:34;;;;;;;43.67;19.30;;;;;;;;;;5098003;28;20200;-79
2023/04/16 03:48:01;;;;;;;26.63;12.93;;;;;;;;;;5096703;28;20211;-79
2023/04/16 03:50:28;;;;;;;15.13;7.43;;;;;;;;;;5090652;28;20238;-79
2023/04/16 03:52:54;;;;;;;14.47;5.97;;;;;;;;;;5103978;28;20207;-78
2023/04/16 03:55:22;;;;;;;12.00;4.70;;;;;;;;;;5099238;28;20651;-79
2023/04/16 03:57:49;;;;;;;14.67;8.53;;;;;;;;;;5113587;28;20232;-79
2023/04/16 04:00:16;;;;;;;8.23;3.83;;;;;;;;;;5115007;28;20203;-79
2023/04/16 04:02:43;;;;;;;6.63;3.57;;;;;;;;;;5100900;28;20200;-85
2023/04/16 04:05:09;;;;;;;5.33;4.00;;;;;;;;;;5114881;28;20211;-79
2023/04/16 04:07:36;;;;;;;8.20;3.30;;;;;;;;;;5099099;28;20747;-79
2023/04/16 04:10:03;;;;;;;12.07;3.60;;;;;;;;;;5094397;28;21065;-79
2023/04/16 04:12:32;;;;;;;7.73;3.57;;;;;;;;;;5107498;28;20739;-79
2023/04/16 04:14:58;;;;;;;8.83;3.80;;;;;;;;;;5094232;28;20197;-79
2023/04/16 04:17:25;;;;;;;10.80;3.90;;;;;;;;;;5094324;28;20215;-79
2023/04/16 04:19:52;;;;;;;7.43;4.07;;;;;;;;;;5103542;28;20207;-79
2023/04/16 04:22:19;;;;;;;8.97;3.80;;;;;;;;;;5098265;28;20196;-79
2023/04/16 04:24:46;;;;;;;9.77;4.30;;;;;;;;;;5094069;28;20673;-79
2023/04/16 04:27:12;;;;;;;9.13;4.60;;;;;;;;;;5107414;28;20197;-79
2023/04/16 04:29:40;;;;;;;15.37;6.07;;;;;;;;;;5094336;28;20199;-79
2023/04/16 04:32:07;;;;;;;11.40;5.07;;;;;;;;;;5097334;28;20202;-79
2023/04/16 04:34:34;;;;;;;10.60;4.47;;;;;;;;;;5103998;28;20687;-79
2023/04/16 04:37:01;;;;;;;7.27;3.97;;;;;;;;;;5111986;28;20752;-79
2023/04/16 04:39:27;;;;;;;8.53;4.17;;;;;;;;;;5101772;28;20229;-79
2023/04/16 04:41:54;;;;;;;7.50;3.77;;;;;;;;;;5107349;28;20247;-80
2023/04/16 04:44:21;;;;;;;9.57;4.50;;;;;;;;;;5100337;28;20200;-79
2023/04/16 04:46:49;;;;;;;5.70;4.50;;;;;;;;;;5093571;28;20609;-79
2023/04/16 04:49:16;;;;;;;7.23;5.20;;;;;;;;;;5107128;28;20192;-80
2023/04/16 04:51:43;;;;;;;7.73;4.37;;;;;;;;;;5093384;28;20196;-79
2023/04/16 04:54:10;;;;;;;6.27;4.50;;;;;;;;;;5095138;28;20211;-77
2023/04/16 04:56:36;;;;;;;7.70;4.67;;;;;;;;;;5096215;28;20693;-77
2023/04/16 04:59:03;;;;;;;8.13;5.13;;;;;;;;;;5103284;28;20285;-77
2023/04/16 05:01:30;;;;;;;10.30;7.00;;;;;;;;;;5096307;28;20282;-77
2023/04/16 05:03:58;;;;;;;15.87;8.47;;;;;;;;;;5102910;28;20597;-77
2023/04/16 05:06:25;;;;;;;11.10;9.20;;;;;;;;;;5093044;28;20713;-77
2023/04/16 05:08:52;;;;;;;16.40;9.53;;;;;;;;;;5092028;28;20682;-78
2023/04/16 05:11:19;;;;;;;12.47;8.93;;;;;;;;;;5091898;28;20710;-78
2023/04/16 05:13:46;;;;;;;7.83;6.40;;;;;;;;;;5092971;28;20200;-77
2023/04/16 05:16:12;;;;;;;8.03;5.93;;;;;;;;;;5092642;28;20208;-77
2023/04/16 05:18:39;;;;;;;9.40;4.77;;;;;;;;;;5105281;28;20223;-77
2023/04/16 05:21:07;;;;;;;6.80;4.87;;;;;;;;;;5107273;28;20209;-78
2023/04/16 05:23:34;;;;;;;6.33;4.53;;;;;;;;;;5092955;28;20208;-77
2023/04/16 05:26:01;;;;;;;6.40;4.77;;;;;;;;;;5092179;28;20231;-78
2023/04/16 05:28:27;;;;;;;12.63;6.70;;;;;;;;;;5105600;28;20634;-77
2023/04/16 05:30:54;;;;;;;11.23;6.40;;;;;;;;;;5092304;28;20192;-79
2023/04/16 05:33:21;;;;;;;10.00;7.73;;;;;;;;;;5092489;28;20721;-78
2023/04/16 05:35:48;;;;;;;12.67;7.53;;;;;;;;;;5092297;28;20602;-81
2023/04/16 05:38:16;;;;;;;11.70;6.60;;;;;;;;;;5105780;28;20234;-81
2023/04/16 05:40:43;;;;;;;10.30;8.03;;;;;;;;;;5100446;28;20198;-81
2023/04/16 05:43:10;;;;;;;11.57;7.97;;;;;;;;;;5098288;28;20211;-79
2023/04/16 05:45:39;;;;;;;10.43;8.17;;;;;;;;;;5092027;28;20223;-78
2023/04/16 05:48:07;;;;;;;12.33;7.67;;;;;;;;;;5105303;28;20716;-77
2023/04/16 05:50:34;;;;;;;16.40;8.17;;;;;;;;;;5091890;28;20671;-77
2023/04/16 05:53:02;;;;;;;8.63;7.77;;;;;;;;;;5104753;28;20214;-77
2023/04/16 05:55:30;;;;;;;11.77;7.97;;;;;;;;;;5101028;28;20208;-77
2023/04/16 05:57:57;;;;;;;13.87;9.50;;;;;;;;;;5097944;28;20211;-77
2023/04/16 06:00:24;;;;;;;14.07;10.07;;;;;;;;;;5103228;28;20200;-80
2023/04/16 06:02:51;;;;;;;93.73;67.30;;;;;;;;;;5092016;28;20595;-79
2023/04/16 06:05:18;;;;;;;31.63;26.30;;;;;;;;;;5092375;28;20257;-80
2023/04/16 06:07:44;;;;;;;31.00;28.07;;;;;;;;;;5095520;28;20203;-81
2023/04/16 06:10:11;;;;;;;19.80;15.40;;;;;;;;;;5112877;28;20230;-81
2023/04/16 06:12:42;;;;;;;11.37;9.80;;;;;;;;;;5113011;28;20207;-81
2023/04/16 06:15:10;;;;;;;7.90;7.10;;;;;;;;;;5111874;28;20207;-81
2023/04/16 06:17:37;;;;;;;8.43;7.43;;;;;;;;;;5112241;28;20294;-82
2023/04/16 06:20:06;;;;;;;6.83;6.10;;;;;;;;;;5112546;28;20223;-80
2023/04/16 06:22:33;;;;;;;7.57;6.57;;;;;;;;;;5098969;28;20712;-81
2023/04/16 06:25:00;;;;;;;11.17;8.13;;;;;;;;;;5101112;28;20215;-81
2023/04/16 06:27:27;;;;;;;9.50;8.57;;;;;;;;;;5092156;28;20196;-81
2023/04/16 06:29:57;;;;;;;11.20;7.57;;;;;;;;;;5103827;28;20586;-81
2023/04/16 06:32:23;;;;;;;9.07;7.50;;;;;;;;;;5098155;28;20211;-81
2023/04/16 06:34:50;;;;;;;11.57;9.53;;;;;;;;;;5102163;28;20208;-82
2023/04/16 06:37:17;;;;;;;11.83;8.90;;;;;;;;;;5098551;28;20626;-81
2023/04/16 06:39:44;;;;;;;12.23;9.43;;;;;;;;;;5102180;28;20743;-81
2023/04/16 06:42:10;;;;;;;9.27;8.37;;;;;;;;;;5108100;28;20204;-80
2023/04/16 06:44:37;;;;;;;12.67;10.87;;;;;;;;;;5102234;28;20207;-80
2023/04/16 06:47:05;;;;;;;14.83;13.27;;;;;;;;;;5108605;28;20244;-81
2023/04/16 06:49:32;;;;;;;12.57;10.77;;;;;;;;;;5111531;28;20203;-81
2023/04/16 06:51:59;;;;;;;15.07;11.90;;;;;;;;;;5094388;28;20286;-81
2023/04/16 06:54:25;;;;;;;9.90;8.23;;;;;;;;;;5092259;28;20204;-81
2023/04/16 06:56:52;;;;;;;10.07;7.90;;;;;;;;;;5095138;28;20235;-86
2023/04/16 06:59:19;;;;;;;11.90;9.87;;;;;;;;;;5111986;28;20234;-81
2023/04/16 07:01:47;;;;;;;9.00;8.10;;;;;;;;;;5107457;28;20204;-80
2023/04/16 07:04:15;;;;;;;8.77;7.83;;;;;;;;;;5106677;28;20682;-81
2023/04/16 07:06:42;;;;;;;9.00;6.10;;;;;;;;;;5111681;28;20598;-80
2023/04/16 07:09:09;;;;;;;7.90;6.73;;;;;;;;;;5098336;28;20268;-81
2023/04/16 07:11:36;;;;;;;6.17;5.60;;;;;;;;;;5108630;28;20749;-81
2023/04/16 07:14:03;;;;;;;9.97;7.70;;;;;;;;;;5096686;28;20204;-81
2023/04/16 07:16:30;;;;;;;10.27;6.53;;;;;;;;;;5099693;28;20211;-81
2023/04/16 07:18:58;;;;;;;9.77;6.97;;;;;;;;;;5097975;28;20229;-81
2023/04/16 07:21:26;;;;;;;6.63;5.00;;;;;;;;;;5110623;28;20204;-81
2023/04/16 07:23:53;;;;;;;17.03;10.90;;;;;;;;;;5097809;28;20202;-81
2023/04/16 07:26:19;;;;;;;9.97;7.40;;;;;;;;;;5103904;28;20651;-80
2023/04/16 07:28:46;;;;;;;9.53;6.33;;;;;;;;;;5104772;28;20214;-81
2023/04/16 07:31:13;;;;;;;13.03;7.23;;;;;;;;;;5092941;28;20224;-81
2023/04/16 07:33:40;;;;;;;10.43;9.00;;;;;;;;;;5111375;28;20243;-81
2023/04/16 07:36:07;;;;;;;9.27;7.13;;;;;;;;;;5100255;28;20207;-81
2023/04/16 07:38:39;;;;;;;8.40;7.47;;;;;;;;;;5103388;28;20231;-80
2023/04/16 07:41:05;;;;;;;13.47;8.03;;;;;;;;;;5104189;28;20220;-80
2023/04/16 07:43:32;;;;;;;13.97;11.77;;;;;;;;;;5109758;28;20200;-80
2023/04/16 07:46:00;;;;;;;14.30;8.03;;;;;;;;;;5099258;28;20200;-80
2023/04/16 07:48:27;;;;;;;9.60;6.27;;;;;;;;;;5108984;28;20670;-80
2023/04/16 07:50:54;;;;;;;11.77;7.03;;;;;;;;;;5099250;28;20209;-81
2023/04/16 07:53:21;;;;;;;12.80;7.00;;;;;;;;;;5116980;28;20203;-80
2023/04/16 07:55:49;;;;;;;10.97;6.40;;;;;;;;;;5116058;28;20207;-81
2023/04/16 07:58:16;;;;;;;11.47;7.00;;;;;;;;;;5105465;28;20203;-81
2023/04/16 08:00:44;;;;;;;10.83;8.23;;;;;;;;;;5117805;28;20294;-82
2023/04/16 08:03:11;;;;;;;14.53;8.27;;;;;;;;;;5103967;28;20761;-82
2023/04/16 08:05:37;;;;;;;11.27;8.23;;;;;;;;;;5109398;28;20192;-82
2023/04/16 08:08:05;;;;;;;10.20;6.30;;;;;;;;;;5099539;28;20200;-82
2023/04/16 08:10:31;;;;;;;7.27;6.00;;;;;;;;;;5097603;28;20232;-81
2023/04/16 08:13:00;;;;;;;9.97;7.47;;;;;;;;;;5116242;28;20207;-81
2023/04/16 08:15:27;;;;;;;9.87;6.43;;;;;;;;;;5112264;28;20252;-79
2023/04/16 08:17:54;;;;;;;8.90;8.07;;;;;;;;;;5097596;28;20184;-92
2023/04/16 08:20:21;;;;;;;12.70;11.33;;;;;;;;;;5095391;28;20235;-79
2023/04/16 08:22:49;;;;;;;13.67;10.70;;;;;;;;;;5107686;28;20683;-82
2023/04/16 08:25:15;;;;;;;15.10;9.50;;;;;;;;;;5112091;28;20203;-80
2023/04/16 08:27:42;;;;;;;15.97;9.03;;;;;;;;;;5090742;28;20215;-78
2023/04/16 08:30:11;;;;;;;11.63;8.70;;;;;;;;;;5097123;28;20197;-79
2023/04/16 08:32:38;;;;;;;10.83;8.60;;;;;;;;;;5109848;28;20203;-79
2023/04/16 08:35:05;;;;;;;16.63;11.13;;;;;;;;;;5097697;28;20253;-79
2023/04/16 08:37:32;;;;;;;21.13;11.23;;;;;;;;;;5116818;28;20208;-79
2023/04/16 08:39:59;;;;;;;21.10;14.50;;;;;;;;;;5102669;28;20228;-79
2023/04/16 08:42:30;;;;;;;15.93;10.67;;;;;;;;;;5107444;28;20208;-79
2023/04/16 08:45:06;;;;;;;12.03;8.77;;;;;;;;;;5106598;28;20286;-77
2023/04/16 08:47:37;;;;;;;14.23;9.80;;;;;;;;;;5092934;28;20682;-77
2023/04/16 08:50:05;;;;;;;10.60;9.47;;;;;;;;;;5097894;28;20207;-77
2023/04/16 08:52:32;;;;;;;12.47;8.47;;;;;;;;;;5102246;28;20296;-77
2023/04/16 08:55:04;;;;;;;14.20;10.43;;;;;;;;;;5092878;28;20207;-77
2023/04/16 08:57:38;;;;;;;14.60;11.13;;;;;;;;;;5105572;28;20199;-80
2023/04/16 09:00:07;;;;;;;11.40;7.73;;;;;;;;;;5093384;28;20646;-80
2023/04/16 09:11:34;;;;;;;14.60;7.77;;;;;;;;;;5102913;28;20765;-81
2023/04/16 09:14:01;;;;;;;14.07;8.30;;;;;;;;;;5101583;28;20205;-80
2023/04/16 09:16:32;;;;;;;13.87;9.83;;;;;;;;;;5100806;28;20219;-81
2023/04/16 09:19:00;;;;;;;15.97;12.10;;;;;;;;;;5104526;28;20202;-81
2023/04/16 09:21:27;;;;;;;17.17;12.03;;;;;;;;;;5104338;28;20209;-83
2023/04/16 09:23:53;;;;;;;12.87;9.30;;;;;;;;;;5092656;28;20205;-81
2023/04/16 09:26:20;;;;;;;15.00;11.00;;;;;;;;;;5092390;28;21321;-80
2023/04/16 09:28:49;;;;;;;17.07;11.23;;;;;;;;;;5098624;28;20290;-81
2023/04/16 09:31:17;;;;;;;20.03;13.43;;;;;;;;;;5095922;28;20697;-81
2023/04/16 09:34:03;;;;;;;15.37;10.87;;;;;;;;;;5099351;28;20208;-80
2023/04/16 09:36:31;;;;;;;18.33;12.67;;;;;;;;;;5104989;28;20191;-81
2023/04/16 09:38:58;;;;;;;50.37;45.00;;;;;;;;;;5111286;28;21164;-81
2023/04/16 09:41:28;;;;;;;12.30;10.60;;;;;;;;;;5108349;28;20226;-80
2023/04/16 09:43:56;;;;;;;20.27;11.47;;;;;;;;;;5099619;28;20256;-80
2023/04/16 09:46:23;;;;;;;21.73;12.57;;;;;;;;;;5098430;28;20200;-80
2023/04/16 09:48:50;;;;;;;60.07;54.63;;;;;;;;;;5100216;28;20746;-81
2023/04/16 09:51:18;;;;;;;74.10;67.10;;;;;;;;;;5112466;28;20203;-81
2023/04/16 09:53:45;;;;;;;17.60;14.67;;;;;;;;;;5104143;28;20204;-81
2023/04/16 09:56:13;;;;;;;13.93;10.83;;;;;;;;;;5091860;28;20208;-81
2023/04/16 09:58:40;;;;;;;17.70;13.37;;;;;;;;;;5092409;28;20288;-81
2023/04/16 10:01:09;;;;;;;29.03;17.60;;;;;;;;;;5091840;28;20223;-80
2023/04/16 10:03:42;;;;;;;25.67;15.33;;;;;;;;;;5101433;28;20208;-80
2023/04/16 10:06:10;;;;;;;31.17;17.17;;;;;;;;;;5099024;28;20208;-81
2023/04/16 10:08:43;;;;;;;22.67;13.50;;;;;;;;;;5101464;28;20206;-81
2023/04/16 10:11:12;;;;;;;21.13;14.63;;;;;;;;;;5093021;28;20642;-80
2023/04/16 10:13:39;;;;;;;18.50;12.20;;;;;;;;;;5092431;28;20201;-80
2023/04/16 10:16:07;;;;;;;19.40;11.50;;;;;;;;;;5105093;28;20208;-81
2023/04/16 10:18:37;;;;;;;41.57;25.50;;;;;;;;;;5091994;28;20278;-81
2023/04/16 10:21:04;;;;;;;17.67;12.77;;;;;;;;;;5110621;28;20318;-80
2023/04/16 10:23:31;;;;;;;16.60;10.73;;;;;;;;;;5101591;28;20231;-81
2023/04/16 10:26:01;;;;;;;16.23;9.60;;;;;;;;;;5106840;28;20201;-80
2023/04/16 10:28:28;;;;;;;12.90;8.57;;;;;;;;;;5098631;28;20192;-80
2023/04/16 10:30:57;;;;;;;18.03;8.33;;;;;;;;;;5111757;28;20678;-80
2023/04/16 10:33:26;;;;;;;13.67;11.33;;;;;;;;;;5098182;28;20697;-80
2023/04/16 10:35:53;;;;;;;15.37;9.53;;;;;;;;;;5109780;28;20203;-80
2023/04/16 10:38:24;;;;;;;19.37;9.13;;;;;;;;;;5091743;28;20257;-80
2023/04/16 10:41:00;;;;;;;12.10;10.37;;;;;;;;;;5091206;28;20227;-80
2023/04/16 10:43:28;;;;;;;32.73;21.00;;;;;;;;;;5109993;28;20658;-80
2023/04/16 10:45:55;;;;;;;20.87;16.17;;;;;;;;;;5100839;28;20695;-80
2023/04/16 10:48:24;;;;;;;16.23;11.13;;;;;;;;;;5095739;28;20282;-79
2023/04/16 10:50:55;;;;;;;19.93;14.03;;;;;;;;;;5111456;28;20208;-79
2023/04/16 10:53:24;;;;;;;20.80;15.17;;;;;;;;;;5104264;28;20232;-79
2023/04/16 10:56:03;;;;;;;29.27;15.70;;;;;;;;;;5090161;28;20278;-79
2023/04/16 10:58:30;;;;;;;12.77;8.97;;;;;;;;;;5098187;28;20226;-79
2023/04/16 11:01:00;;;;;;;19.53;11.17;;;;;;;;;;5109310;28;20709;-80
2023/04/16 11:03:30;;;;;;;18.77;10.80;;;;;;;;;;5090445;28;20686;-80
2023/04/16 11:06:11;;;;;;;14.40;11.53;;;;;;;;;;5091726;28;20876;-79
2023/04/16 11:08:39;;;;;;;12.37;10.70;;;;;;;;;;5100347;28;20310;-79
2023/04/16 11:11:08;;;;;;;19.33;11.23;;;;;;;;;;5091451;28;20610;-80
2023/04/16 11:13:36;;;;;;;12.23;9.63;;;;;;;;;;5091404;28;20226;-80
2023/04/16 11:16:04;;;;;;;11.43;7.93;;;;;;;;;;5104299;28;20200;-80
2023/04/16 11:18:31;;;;;;;13.03;9.43;;;;;;;;;;5091634;28;20659;-79
2023/04/16 11:20:59;;;;;;;18.30;8.20;;;;;;;;;;5072688;28;20738;-79
2023/04/16 11:23:25;;;;;;;11.87;6.10;;;;;;;;;;5090645;28;20208;-80
2023/04/16 11:25:56;;;;;;;10.57;7.43;;;;;;;;;;5104168;28;20616;-79
2023/04/16 11:28:34;;;;;;;15.90;6.50;;;;;;;;;;5104482;28;20206;-78
2023/04/16 11:31:10;;;;;;;14.20;6.10;;;;;;;;;;5090801;28;20196;-79
2023/04/16 11:33:38;;;;;;;17.13;9.23;;;;;;;;;;5106893;28;20915;-79
2023/04/16 11:36:05;;;;;;;13.43;6.73;;;;;;;;;;5101402;28;20610;-79
2023/04/16 11:38:39;;;;;;;11.50;5.33;;;;;;;;;;5107607;28;20638;-78
2023/04/16 11:41:06;;;;;;;10.67;5.50;;;;;;;;;;5098807;28;20721;-81
2023/04/16 11:43:35;;;;;;;9.87;5.50;;;;;;;;;;5094430;28;20674;-81
2023/04/16 11:46:03;;;;;;;9.23;4.60;;;;;;;;;;5110366;28;20634;-81
2023/04/16 11:48:50;;;;;;;11.93;6.17;;;;;;;;;;5105119;28;20200;-80
2023/04/16 11:51:18;;;;;;;9.17;4.77;;;;;;;;;;5089676;28;20261;-81
2023/04/16 11:53:51;;;;;;;16.10;7.40;;;;;;;;;;5090465;28;20192;-80
2023/04/16 11:56:27;;;;;;;11.67;6.37;;;;;;;;;;5089989;28;20206;-80
2023/04/16 11:59:08;;;;;;;9.43;6.53;;;;;;;;;;5101953;28;20585;-80
2023/04/16 12:01:40;;;;;;;13.87;7.73;;;;;;;;;;5110655;28;20323;-81
2023/04/16 12:04:07;;;;;;;9.17;5.53;;;;;;;;;;5096865;28;20208;-81
2023/04/16 12:06:41;;;;;;;11.43;5.70;;;;;;;;;;5090950;28;20285;-84
2023/04/16 12:09:24;;;;;;;9.23;5.77;;;;;;;;;;5090881;28;20203;-81
2023/04/16 12:11:51;;;;;;;7.00;4.70;;;;;;;;;;5091828;28;20232;-80
2023/04/16 12:14:19;;;;;;;6.50;4.57;;;;;;;;;;5107241;28;20203;-81
2023/04/16 12:16:46;;;;;;;5.27;4.73;;;;;;;;;;5110617;28;20204;-80
2023/04/16 12:19:13;;;;;;;7.80;4.27;;;;;;;;;;5097111;28;20200;-80
2023/04/16 12:21:42;;;;;;;7.80;4.30;;;;;;;;;;5094255;28;20281;-80
2023/04/16 12:24:11;;;;;;;6.60;4.37;;;;;;;;;;5093283;28;20197;-81
2023/04/16 12:26:43;;;;;;;6.83;4.93;;;;;;;;;;5106227;28;20264;-81
2023/04/16 12:29:22;;;;;;;6.23;4.37;;;;;;;;;;5114160;28;20207;-81
2023/04/16 12:31:50;;;;;;;10.30;5.63;;;;;;;;;;5113475;28;20218;-82
2023/04/16 12:34:17;;;;;;;9.27;6.83;;;;;;;;;;5094552;28;20200;-81
2023/04/16 12:36:44;;;;;;;7.33;5.87;;;;;;;;;;5090579;28;20294;-81
2023/04/16 12:39:13;;;;;;;9.03;5.83;;;;;;;;;;5113930;28;20654;-81
2023/04/16 12:41:41;;;;;;;7.37;6.67;;;;;;;;;;5098758;28;20235;-81
2023/04/16 12:44:10;;;;;;;8.23;5.93;;;;;;;;;;5102615;28;20199;-79
2023/04/16 12:46:40;;;;;;;7.93;7.10;;;;;;;;;;5111257;28;20592;-79
2023/04/16 12:49:07;;;;;;;7.03;6.47;;;;;;;;;;5093744;28;20215;-79
2023/04/16 12:51:37;;;;;;;8.23;7.43;;;;;;;;;;5096464;28;20195;-79
2023/04/16 12:54:07;;;;;;;10.20;7.70;;;;;;;;;;5103959;28;20625;-79
2023/04/16 12:56:34;;;;;;;11.67;8.30;;;;;;;;;;5106519;28;20200;-79
2023/04/16 12:59:01;;;;;;;9.23;6.87;;;;;;;;;;5093369;28;20630;-79
2023/04/16 13:01:27;;;;;;;9.30;6.67;;;;;;;;;;5097623;28;20231;-79
2023/04/16 13:03:55;;;;;;;9.53;6.67;;;;;;;;;;5113098;28;20215;-79
2023/04/16 13:06:22;;;;;;;11.00;7.23;;;;;;;;;;5108462;28;20263;-79
2023/04/16 13:08:51;;;;;;;8.40;7.17;;;;;;;;;;5105489;28;20771;-79
2023/04/16 13:11:19;;;;;;;11.40;6.43;;;;;;;;;;5112759;28;20717;-79
2023/04/16 13:13:46;;;;;;;10.97;8.77;;;;;;;;;;5101414;28;20208;-79
2023/04/16 13:16:12;;;;;;;10.43;5.80;;;;;;;;;;5112689;28;20199;-79
2023/04/16 13:18:41;;;;;;;6.77;5.20;;;;;;;;;;5113270;28;20567;-79
2023/04/16 13:21:09;;;;;;;7.97;5.40;;;;;;;;;;5093052;28;20232;-80
2023/04/16 13:23:35;;;;;;;6.63;6.03;;;;;;;;;;5106647;28;20201;-79
2023/04/16 13:26:02;;;;;;;6.97;4.43;;;;;;;;;;5093122;28;20200;-80
2023/04/16 13:28:29;;;;;;;13.50;10.97;;;;;;;;;;5092604;28;20295;-79
2023/04/16 13:30:57;;;;;;;12.90;11.57;;;;;;;;;;5092558;28;20216;-79
2023/04/16 13:33:23;;;;;;;11.97;9.23;;;;;;;;;;5092673;28;20208;-80
2023/04/16 13:35:50;;;;;;;20.93;12.50;;;;;;;;;;5093052;28;21044;-79
2023/04/16 13:38:19;;;;;;;25.83;17.40;;;;;;;;;;5106431;28;20200;-79
2023/04/16 13:40:46;;;;;;;10.37;6.73;;;;;;;;;;5104639;28;20229;-79
2023/04/16 13:43:15;;;;;;;9.77;8.20;;;;;;;;;;5107290;28;20202;-80
2023/04/16 13:45:42;;;;;;;9.40;6.50;;;;;;;;;;5104209;28;20327;-80
2023/04/16 13:48:09;;;;;;;28.87;19.40;;;;;;;;;;5094156;28;20207;-80
2023/04/16 13:50:36;;;;;;;14.47;10.33;;;;;;;;;;5104527;28;20721;-80
2023/04/16 13:53:05;;;;;;;13.87;9.43;;;;;;;;;;5106325;28;20231;-79
2023/04/16 13:55:36;;;;;;;23.17;15.23;;;;;;;;;;5092138;28;20200;-79
2023/04/16 13:58:03;;;;;;;23.27;15.70;;;;;;;;;;5105882;28;20199;-79
2023/04/16 14:00:29;;;;;;;15.77;12.23;;;;;;;;;;5092502;28;20213;-79
2023/04/16 14:02:56;;;;;;;4.80;4.27;;;;;;;;;;5105996;28;20199;-79
2023/04/16 14:05:23;;;;;;;9.37;6.17;;;;;;;;;;5092330;28;20200;-79
2023/04/16 14:07:50;;;;;;;11.63;7.87;;;;;;;;;;5108281;28;20322;-79
2023/04/16 14:10:17;;;;;;;20.70;13.93;;;;;;;;;;5103004;28;20275;-80
2023/04/16 14:12:46;;;;;;;27.73;20.83;;;;;;;;;;5105206;28;20211;-79
2023/04/16 14:15:14;;;;;;;12.73;8.60;;;;;;;;;;5092205;28;20215;-79
2023/04/16 14:17:42;;;;;;;18.67;16.57;;;;;;;;;;5105220;28;20202;-79
2023/04/16 14:20:11;;;;;;;24.67;18.17;;;;;;;;;;5090873;28;20196;-82
2023/04/16 14:22:38;;;;;;;6.30;5.20;;;;;;;;;;5104483;28;20739;-77
2023/04/16 14:25:05;;;;;;;8.30;6.43;;;;;;;;;;5091899;28;20223;-78
2023/04/16 14:27:32;;;;;;;9.93;7.30;;;;;;;;;;5105252;28;20204;-80
2023/04/16 14:30:01;;;;;;;4.93;3.63;;;;;;;;;;5104773;28;20203;-80
2023/04/16 14:32:27;;;;;;;14.07;9.83;;;;;;;;;;5094828;28;20205;-80
2023/04/16 14:34:54;;;;;;;9.40;7.60;;;;;;;;;;5091650;28;20616;-81
2023/04/16 14:37:21;;;;;;;7.20;5.33;;;;;;;;;;5104789;28;20235;-81
2023/04/16 14:39:48;;;;;;;11.27;6.73;;;;;;;;;;5101375;28;20379;-80
2023/04/16 14:42:16;;;;;;;9.50;8.60;;;;;;;;;;5090359;28;20675;-81
2023/04/16 14:44:43;;;;;;;7.70;7.00;;;;;;;;;;5094606;28;20204;-80
2023/04/16 14:47:11;;;;;;;6.67;5.97;;;;;;;;;;5101544;28;20567;-80